Midland International Airport
KMAF : now visible

Airfield :











YOU CAN JOIN US ON...

 
LOGIN :

Register | Disclaimer

   EN    FR    IT 

 









Legend :    VFR   Marginal VFR   IFR   Intensive IFR   Very Intensive IFR
Visi :
Ceiling :
>= 8 km
>= 3000ft
5 to 8 km
1000 to 3000 ft
1500m to 5 km
500 to 1000 ft
800 to 1500m
200 to 500 ft
< 800m
< 200 ft
Symbols :   Thunderstorms  Fog  Heavy snow  Heavy precipitations  Wind > 20 kt






- Airport Elevation : 2871 ft
- IATA code : MAF


KMAF - Midland International

CURRENT METAR :
  • 031953Z 13017G24KT 10SM CLR 33/13 A3002 RMK AO2 PK WND 13026/1933 SLP112 T03330128 $

EXPIRED METARs :
  • 031853Z 17014G20KT 10SM CLR 33/13 A3003 RMK AO2 SLP118 T03280128 $
  • 030453Z 14011KT 10SM CLR 27/16 A3000 RMK AO2 SLP106 T02670161 $
  • 031753Z 16016G22KT 10SM CLR 32/15 A3005 RMK AO2 SLP124 T03220150 10322 20217 58002 $

TAF KMAF
Valid from the 03 at 18:00 until the 04 at 18:00 UTC


031720Z 0318/0418 15016G22KT P6SM SCT045 SCT250
FM040200 15012KT P6SM SCT200
FM041600 17015G21KT P6SM SCT045
KZFW FIR / North America



MET'MAP, your aeronautical weather chart ! - Copyright ORBIFLY December 2007 - Disclaimer

ORBIFLY MET'MAP TEAM :

Programming & Development : Alexandra Zaïnal
Original concept : Baudouin d'Aumeries
Technical & hardware support : Manuel Goepfert
Assistance : Marc-Olivier Méhu




SOURCES & CREDITS :

   NOAA       Earth
Advisory